createdAt,value
2019-04-01T00:00:36.487Z,102040.29
2019-04-01T00:03:06.738Z,102042.52
2019-04-01T00:05:36.178Z,102044.77
2019-04-01T00:08:05.586Z,102047.42
2019-04-01T00:10:35.031Z,102050.61
2019-04-01T00:13:04.446Z,102056.66
2019-04-01T00:15:33.884Z,102055.89
2019-04-01T00:18:03.308Z,102060.72
2019-04-01T00:20:32.739Z,102058.62
2019-04-01T00:23:02.421Z,102055.72
2019-04-01T00:25:31.963Z,102063.97
2019-04-01T00:28:01.381Z,102066.55
2019-04-01T00:30:30.824Z,102067.94
2019-04-01T00:33:00.238Z,102069.73
2019-04-01T00:35:29.684Z,102065.94
2019-04-01T00:37:59.104Z,102062.61
2019-04-01T00:40:28.556Z,102058.34
2019-04-01T00:43:05.567Z,102069.09
2019-04-01T00:45:36.644Z,102063.97
2019-04-01T00:48:06.054Z,102066.97
2019-04-01T00:50:35.501Z,102067.86
2019-04-01T00:53:04.912Z,102067.87
2019-04-01T00:55:34.407Z,102067.89
2019-04-01T00:58:03.828Z,102064.03
2019-04-01T01:00:33.289Z,102064.48
2019-04-01T01:03:02.682Z,102071.41
2019-04-01T01:05:32.128Z,102062.81
2019-04-01T01:08:01.550Z,102070.14
2019-04-01T01:10:31.121Z,102059.00
2019-04-01T01:13:02.007Z,102071.44
2019-04-01T01:15:31.490Z,102069.75
2019-04-01T01:18:01.197Z,102077.07
2019-04-01T01:20:30.644Z,102068.48
2019-04-01T01:23:00.158Z,102069.78
2019-04-01T01:25:29.581Z,102075.81
2019-04-01T01:27:58.996Z,102077.11
2019-04-01T01:30:28.437Z,102076.68
2019-04-01T01:32:57.851Z,102075.83
2019-04-01T01:35:27.291Z,102079.72
2019-04-01T01:37:56.706Z,102082.69
2019-04-01T01:40:26.149Z,102082.73
2019-04-01T01:42:55.565Z,102081.89
2019-04-01T01:45:24.999Z,102087.90
2019-04-01T01:47:54.443Z,102081.02
2019-04-01T01:50:23.850Z,102084.89
2019-04-01T01:52:53.289Z,102076.32
2019-04-01T01:55:22.704Z,102080.20
2019-04-01T01:57:52.231Z,102079.76
2019-04-01T02:00:22.510Z,102079.76
2019-04-01T02:02:51.963Z,102081.92
2019-04-01T02:05:21.388Z,102088.76
2019-04-01T02:07:50.818Z,102087.94
2019-04-01T02:10:20.530Z,102093.91
2019-04-01T02:12:49.959Z,102090.04
2019-04-01T02:15:19.371Z,102089.64
2019-04-01T02:17:49.951Z,102093.90
2019-04-01T02:20:19.703Z,102099.05
2019-04-01T02:22:49.145Z,102099.92
2019-04-01T02:25:18.556Z,102098.20
2019-04-01T02:27:48.023Z,102099.48
2019-04-01T02:30:17.635Z,102100.78
2019-04-01T02:32:47.087Z,102109.80
2019-04-01T02:35:16.497Z,102105.47
2019-04-01T02:37:45.944Z,102107.22
2019-04-01T02:40:15.368Z,102104.20
2019-04-01T02:42:45.019Z,102106.77
2019-04-01T02:45:15.813Z,102102.48
2019-04-01T02:47:45.251Z,102105.91
2019-04-01T02:50:14.817Z,102108.50
2019-04-01T02:52:44.281Z,102108.48
2019-04-01T02:55:13.698Z,102107.22
2019-04-01T02:57:43.208Z,102109.34
2019-04-01T03:00:12.631Z,102110.63
2019-04-01T03:02:42.070Z,102111.50
2019-04-01T03:05:12.248Z,102117.08
2019-04-01T03:07:41.694Z,102119.64
2019-04-01T03:10:11.232Z,102124.36
2019-04-01T03:12:40.624Z,102126.49
2019-04-01T03:15:10.038Z,102129.47
2019-04-01T03:17:39.471Z,102129.48
2019-04-01T03:20:09.042Z,102129.48
2019-04-01T03:22:38.476Z,102132.52
2019-04-01T03:25:07.888Z,102135.09
2019-04-01T03:27:37.334Z,102141.56
2019-04-01T03:30:06.742Z,102137.72
2019-04-01T03:32:43.923Z,102142.05
2019-04-01T03:35:07.316Z,102141.20
2019-04-01T03:37:36.805Z,102143.37
2019-04-01T03:40:06.490Z,102148.09
2019-04-01T03:42:35.935Z,102143.79
2019-04-01T03:45:06.116Z,102149.38
2019-04-01T03:47:35.564Z,102151.09
2019-04-01T03:50:05.444Z,102155.78
2019-04-01T03:52:34.886Z,102155.34
2019-04-01T03:55:04.672Z,102157.50
2019-04-01T03:57:34.123Z,102149.77
2019-04-01T04:00:05.364Z,102152.73
2019-04-01T04:02:34.814Z,102145.41
2019-04-01T04:05:06.040Z,102152.72
2019-04-01T04:07:35.486Z,102156.98
2019-04-01T04:10:06.475Z,102163.00
2019-04-01T04:12:35.917Z,102163.86
2019-04-01T04:15:06.086Z,102159.16
2019-04-01T04:17:35.532Z,102163.42
2019-04-01T04:20:05.214Z,102169.84
2019-04-01T04:22:34.665Z,102169.84
2019-04-01T04:25:05.119Z,102172.41
2019-04-01T04:27:34.576Z,102174.95
2019-04-01T04:30:05.545Z,102173.20
2019-04-01T04:32:35.182Z,102178.34
2019-04-01T04:35:05.636Z,102181.77
2019-04-01T04:37:35.079Z,102177.05
2019-04-01T04:40:06.428Z,102180.91
2019-04-01T04:42:35.875Z,102182.23
2019-04-01T04:45:06.441Z,102187.78
2019-04-01T04:47:35.897Z,102184.31
2019-04-01T04:50:05.474Z,102192.45
2019-04-01T04:52:34.927Z,102190.33
2019-04-01T04:55:05.206Z,102197.62
2019-04-01T04:57:34.657Z,102191.64
2019-04-01T05:00:06.416Z,102196.78
2019-04-01T05:02:35.837Z,102204.09
2019-04-01T05:05:06.469Z,102202.81
2019-04-01T05:07:35.885Z,102206.28
2019-04-01T05:10:07.478Z,102210.55
2019-04-01T05:12:36.909Z,102207.56
2019-04-01T05:15:07.348Z,102214.36
2019-04-01T05:17:36.771Z,102223.78
2019-04-01T05:20:06.330Z,102225.09
2019-04-01T05:22:35.748Z,102226.86
2019-04-01T05:25:05.480Z,102230.77
2019-04-01T05:27:35.061Z,102234.23
2019-04-01T05:30:07.656Z,102235.58
2019-04-01T05:32:37.546Z,102230.88
2019-04-01T05:35:07.063Z,102234.34
2019-04-01T05:37:36.476Z,102233.07
2019-04-01T05:40:06.156Z,102238.25
2019-04-01T05:42:35.945Z,102237.39
2019-04-01T05:45:06.837Z,102240.80
2019-04-01T05:47:46.769Z,102241.23
2019-04-01T05:50:16.246Z,102245.49
2019-04-01T05:52:45.658Z,102243.33
2019-04-01T05:55:15.104Z,102247.17
2019-04-01T05:57:44.784Z,102243.28
2019-04-01T06:00:20.986Z,102240.69
2019-04-01T06:02:50.500Z,102244.52
2019-04-01T06:05:20.060Z,102244.48
2019-04-01T06:07:49.476Z,102247.44
2019-04-01T06:10:19.408Z,102253.83
2019-04-01T06:12:49.007Z,102251.64
2019-04-01T06:15:21.364Z,102256.77
2019-04-01T06:17:50.825Z,102254.09
2019-04-01T06:20:20.264Z,102256.60
2019-04-01T06:22:49.753Z,102255.64
2019-04-01T06:25:19.244Z,102258.52
2019-04-01T06:27:48.652Z,102260.22
2019-04-01T06:30:18.109Z,102254.52
2019-04-01T06:32:47.878Z,102257.02
2019-04-01T06:35:17.355Z,102266.86
2019-04-01T06:37:46.765Z,102268.53
2019-04-01T06:40:16.228Z,102270.57
2019-04-01T06:42:45.657Z,102273.91
2019-04-01T06:45:15.101Z,102271.19
2019-04-01T06:47:44.541Z,102276.34
2019-04-01T06:50:13.991Z,102275.34
2019-04-01T06:52:43.404Z,102280.75
2019-04-01T06:55:12.849Z,102280.20
2019-04-01T06:57:42.261Z,102281.83
2019-04-01T07:00:11.707Z,102285.55
2019-04-01T07:02:41.118Z,102274.60
2019-04-01T07:05:12.625Z,102282.25
2019-04-01T07:07:41.883Z,102279.50
2019-04-01T07:10:11.335Z,102281.86
2019-04-01T07:12:40.752Z,102282.13
2019-04-01T07:15:10.201Z,102285.91
2019-04-01T07:17:39.611Z,102293.56
2019-04-01T07:20:09.264Z,102289.91
2019-04-01T07:22:38.657Z,102286.30
2019-04-01T07:25:08.099Z,102287.02
2019-04-01T07:27:37.508Z,102287.19
2019-04-01T07:30:06.958Z,102285.23
2019-04-01T07:32:36.366Z,102288.84
2019-04-01T07:35:05.816Z,102292.06
2019-04-01T07:37:35.233Z,102300.92
2019-04-01T07:40:05.706Z,102300.26
2019-04-01T07:42:35.124Z,102290.42
2019-04-01T07:45:06.580Z,102297.35
2019-04-01T07:47:36.021Z,102290.72
2019-04-01T07:50:06.253Z,102300.53
2019-04-01T07:52:35.656Z,102300.20
2019-04-01T07:55:06.438Z,102298.58
2019-04-01T07:57:35.850Z,102305.41
2019-04-01T08:00:08.216Z,102301.59
2019-04-01T08:02:37.623Z,102309.08
2019-04-01T08:05:07.078Z,102309.94
2019-04-01T08:07:36.491Z,102307.32
2019-04-01T08:10:07.102Z,102308.66
2019-04-01T08:12:36.542Z,102307.59
2019-04-01T08:15:07.051Z,102310.86
2019-04-01T08:17:36.465Z,102305.70
2019-04-01T08:20:05.984Z,102306.98
2019-04-01T08:22:35.412Z,102309.62
2019-04-01T08:25:06.487Z,102309.05
2019-04-01T08:27:35.919Z,102306.44
2019-04-01T08:30:08.306Z,102310.23
2019-04-01T08:32:37.743Z,102308.78
2019-04-01T08:35:07.153Z,102311.73
2019-04-01T08:37:39.987Z,102312.84
2019-04-01T08:40:07.693Z,102304.13
2019-04-01T08:42:37.137Z,102302.94
2019-04-01T08:45:09.474Z,102303.45
2019-04-01T08:47:38.902Z,102303.63
2019-04-01T08:50:08.316Z,102304.13
2019-04-01T08:52:37.752Z,102307.38
2019-04-01T08:55:07.402Z,102300.91
2019-04-01T08:57:36.868Z,102303.70
2019-04-01T09:00:08.990Z,102307.06
2019-04-01T09:02:38.431Z,102302.06
2019-04-01T09:05:07.835Z,102304.37
2019-04-01T09:07:37.295Z,102310.52
2019-04-01T09:10:06.698Z,102307.87
2019-04-01T09:12:36.145Z,102309.05
2019-04-01T09:15:07.187Z,102303.20
2019-04-01T09:17:40.105Z,102298.48
2019-04-01T09:20:07.728Z,102301.97
2019-04-01T09:22:37.176Z,102305.69
2019-04-01T09:25:06.595Z,102305.84
2019-04-01T09:27:36.040Z,102295.05
2019-04-01T09:30:08.653Z,102288.75
2019-04-01T09:32:38.404Z,102282.24
2019-04-01T09:35:07.816Z,102287.11
2019-04-01T09:37:37.275Z,102281.37
2019-04-01T09:40:07.348Z,102280.70
2019-04-01T09:42:36.799Z,102280.56
2019-04-01T09:45:07.344Z,102275.38
2019-04-01T09:47:36.784Z,102279.84
2019-04-01T09:50:06.208Z,102274.98
2019-04-01T09:52:35.649Z,102273.89
2019-04-01T09:55:06.442Z,102275.64
2019-04-01T09:57:36.076Z,102274.11
2019-04-01T10:00:08.438Z,102268.72
2019-04-01T10:02:37.877Z,102265.39
2019-04-01T10:05:07.451Z,102263.58
2019-04-01T10:07:37.047Z,102272.68
2019-04-01T10:10:06.590Z,102265.62
2019-04-01T10:12:36.207Z,102259.82
2019-04-01T10:15:06.991Z,102263.77
2019-04-01T10:17:36.437Z,102270.00
2019-04-01T10:20:07.987Z,102259.21
2019-04-01T10:22:37.446Z,102258.56
2019-04-01T10:25:06.863Z,102262.94
2019-04-01T10:27:36.296Z,102251.89
2019-04-01T10:30:07.615Z,102253.20
2019-04-01T10:32:37.265Z,102251.08
2019-04-01T10:35:07.147Z,102251.69
2019-04-01T10:37:36.598Z,102256.30
2019-04-01T10:40:07.075Z,102256.13
2019-04-01T10:42:36.514Z,102250.64
2019-04-01T10:45:08.635Z,102249.51
2019-04-01T10:47:38.210Z,102244.09
2019-04-01T10:50:07.701Z,102231.59
2019-04-01T10:52:37.254Z,102233.02
2019-04-01T10:55:06.667Z,102236.52
2019-04-01T10:57:36.293Z,102224.94
2019-04-01T11:00:08.507Z,102241.20
2019-04-01T11:02:38.323Z,102236.23
2019-04-01T11:05:08.176Z,102240.92
2019-04-01T11:07:37.651Z,102231.30
2019-04-01T11:10:11.724Z,102231.61
2019-04-01T11:12:41.103Z,102219.84
2019-04-01T11:15:10.541Z,102214.83
2019-04-01T11:17:43.893Z,102219.44
2019-04-01T11:20:13.986Z,102222.08
2019-04-01T11:22:43.624Z,102219.77
2019-04-01T11:25:13.073Z,102212.90
2019-04-01T11:27:42.519Z,102213.91
2019-04-01T11:30:13.859Z,102206.52
2019-04-01T11:32:43.103Z,102208.76
2019-04-01T11:35:12.536Z,102204.30
2019-04-01T11:37:42.021Z,102205.88
2019-04-01T11:40:12.366Z,102200.81
2019-04-01T11:42:42.151Z,102193.16
2019-04-01T11:45:11.907Z,102199.64
2019-04-01T11:47:41.510Z,102192.05
2019-04-01T11:50:10.994Z,102188.56
2019-04-01T11:52:40.459Z,102190.25
2019-04-01T11:55:09.943Z,102181.66
2019-04-01T11:57:40.465Z,102182.94
2019-04-01T12:00:17.545Z,102167.57
2019-04-01T12:02:46.958Z,102166.97
2019-04-01T12:05:19.627Z,102170.11
2019-04-01T12:07:49.063Z,102173.36
2019-04-01T12:10:18.528Z,102165.39
2019-04-01T12:12:47.938Z,102169.19
2019-04-01T12:15:17.436Z,102160.78
2019-04-01T12:17:47.948Z,102157.92
2019-04-01T12:20:17.416Z,102169.63
2019-04-01T12:22:46.928Z,102162.59
2019-04-01T12:25:16.383Z,102154.21
2019-04-01T12:27:45.792Z,102158.61
2019-04-01T12:30:15.231Z,102143.68
2019-04-01T12:32:44.643Z,102143.41
2019-04-01T12:35:14.123Z,102136.23
2019-04-01T12:37:43.540Z,102140.80
2019-04-01T12:40:12.984Z,102130.09
2019-04-01T12:42:42.400Z,102142.57
2019-04-01T12:45:11.843Z,102135.12
2019-04-01T12:47:43.186Z,102133.55
2019-04-01T12:50:12.488Z,102122.92
2019-04-01T12:52:42.001Z,102122.17
2019-04-01T12:55:11.456Z,102124.56
2019-04-01T12:57:40.936Z,102130.25
2019-04-01T13:00:11.850Z,102113.30
2019-04-01T13:02:41.260Z,102111.95
2019-04-01T13:05:10.706Z,102109.03
2019-04-01T13:07:40.115Z,102110.05
2019-04-01T13:10:09.620Z,102108.66
2019-04-01T13:12:41.487Z,102123.44
2019-04-01T13:15:13.137Z,102112.11
2019-04-01T13:17:42.732Z,102111.50
2019-04-01T13:20:13.949Z,102102.42
2019-04-01T13:22:43.403Z,102111.13
2019-04-01T13:25:13.048Z,102107.13
2019-04-01T13:27:42.454Z,102099.70
2019-04-01T13:30:12.137Z,102101.43
2019-04-01T13:32:41.550Z,102093.92
2019-04-01T13:35:10.992Z,102100.48
2019-04-01T13:37:41.771Z,102093.05
2019-04-01T13:40:11.235Z,102085.34
2019-04-01T13:42:40.647Z,102086.57
2019-04-01T13:45:10.093Z,102091.44
2019-04-01T13:47:41.219Z,102091.08
2019-04-01T13:50:10.644Z,102072.85
2019-04-01T13:52:40.051Z,102067.11
2019-04-01T13:55:10.094Z,102071.86
2019-04-01T13:57:39.802Z,102065.83
2019-04-01T14:00:09.296Z,102068.66
2019-04-01T14:02:38.764Z,102061.49
2019-04-01T14:05:08.879Z,102065.66
2019-04-01T14:07:38.338Z,102060.05
2019-04-01T14:10:07.851Z,102053.41
2019-04-01T14:12:37.431Z,102053.64
2019-04-01T14:15:07.017Z,102061.94
2019-04-01T14:17:40.348Z,102051.50
2019-04-01T14:20:10.241Z,102047.16
2019-04-01T14:22:39.776Z,102051.85
2019-04-01T14:25:09.185Z,102048.66
2019-04-01T14:27:39.507Z,102044.80
2019-04-01T14:30:09.147Z,102039.34
2019-04-01T14:32:39.090Z,102034.91
2019-04-01T14:35:08.505Z,102041.94
2019-04-01T14:37:39.728Z,102033.56
2019-04-01T14:40:09.178Z,102028.30
2019-04-01T14:42:39.777Z,102034.52
2019-04-01T14:45:09.686Z,102030.77
2019-04-01T14:47:55.973Z,102031.18
2019-04-01T14:50:10.727Z,102012.61
2019-04-01T14:52:41.350Z,102027.27
2019-04-01T14:55:11.110Z,102015.45
2019-04-01T14:57:40.566Z,102009.06
2019-04-01T15:00:12.018Z,102012.78
2019-04-01T15:02:41.465Z,102010.25
2019-04-01T15:05:10.981Z,102002.89
2019-04-01T15:07:40.415Z,102002.03
2019-04-01T15:10:10.400Z,102001.97
2019-04-01T15:12:39.915Z,101995.82
2019-04-01T15:15:09.977Z,101985.02
2019-04-01T15:17:39.436Z,101990.27
2019-04-01T15:20:08.868Z,101985.96
2019-04-01T15:22:38.312Z,101976.70
2019-04-01T15:25:08.000Z,101983.66
2019-04-01T15:27:37.444Z,101980.45
2019-04-01T15:30:08.100Z,101979.66
2019-04-01T15:32:37.536Z,101975.34
2019-04-01T15:35:07.520Z,101968.66
2019-04-01T15:37:36.969Z,101964.88
2019-04-01T15:40:07.165Z,101968.05
2019-04-01T15:42:36.622Z,101966.67
2019-04-01T15:45:06.426Z,101967.89
2019-04-01T15:47:36.138Z,101966.55
2019-04-01T15:50:06.312Z,101955.44
2019-04-01T15:52:35.776Z,101959.41
2019-04-01T15:55:07.866Z,101964.06
2019-04-01T15:57:37.317Z,101965.84
2019-04-01T16:00:06.814Z,101953.73
2019-04-01T16:02:36.363Z,101957.28
2019-04-01T16:05:07.224Z,101962.53
2019-04-01T16:07:36.673Z,101958.05
2019-04-01T16:10:06.153Z,101955.02
2019-04-01T16:12:35.676Z,101955.48
2019-04-01T16:15:06.846Z,101951.94
2019-04-01T16:17:36.321Z,101953.30
2019-04-01T16:20:08.420Z,101949.14
2019-04-01T16:22:37.865Z,101951.06
2019-04-01T16:25:07.453Z,101945.96
2019-04-01T16:27:36.907Z,101946.17
2019-04-01T16:30:07.973Z,101942.22
2019-04-01T16:32:37.524Z,101940.11
2019-04-01T16:35:07.022Z,101932.45
2019-04-01T16:37:36.488Z,101943.48
2019-04-01T16:40:06.456Z,101941.34
2019-04-01T16:42:35.906Z,101934.97
2019-04-01T16:45:06.897Z,101938.00
2019-04-01T16:47:36.317Z,101941.34
2019-04-01T16:50:09.430Z,101943.00
2019-04-01T16:52:38.851Z,101945.82
2019-04-01T16:55:08.295Z,101949.86
2019-04-01T16:57:37.716Z,101950.27
2019-04-01T17:00:08.964Z,101950.78
2019-04-01T17:02:38.372Z,101954.45
2019-04-01T17:05:07.879Z,101948.17
2019-04-01T17:07:37.301Z,101951.81
2019-04-01T17:10:07.412Z,101950.66
2019-04-01T17:12:36.824Z,101956.09
2019-04-01T17:15:06.270Z,101955.80
2019-04-01T17:17:35.690Z,101960.61
2019-04-01T17:20:06.384Z,101962.27
2019-04-01T17:22:35.813Z,101958.41
2019-04-01T17:25:06.696Z,101956.47
2019-04-01T17:27:36.110Z,101957.23
2019-04-01T17:30:11.470Z,101960.62
2019-04-01T17:32:40.885Z,101954.73
2019-04-01T17:35:10.354Z,101955.36
2019-04-01T17:37:39.757Z,101963.23
2019-04-01T17:40:10.526Z,101964.41
2019-04-01T17:42:40.146Z,101957.62
2019-04-01T17:45:16.235Z,101967.00
2019-04-01T17:47:45.851Z,101968.11
2019-04-01T17:50:15.425Z,101967.53
2019-04-01T17:52:44.828Z,101970.11
2019-04-01T17:55:14.272Z,101968.59
2019-04-01T17:57:43.693Z,101972.78
2019-04-01T18:00:17.753Z,101971.65
2019-04-01T18:02:47.176Z,101970.55
2019-04-01T18:05:16.651Z,101973.25
2019-04-01T18:07:46.059Z,101979.69
2019-04-01T18:10:15.511Z,101977.62
2019-04-01T18:12:44.933Z,101978.67
2019-04-01T18:15:16.097Z,101983.13
2019-04-01T18:17:45.689Z,101977.66
2019-04-01T18:20:15.309Z,101986.23
2019-04-01T18:22:44.721Z,101984.36
2019-04-01T18:25:14.178Z,101988.45
2019-04-01T18:27:44.360Z,101985.88
2019-04-01T18:30:14.691Z,101986.83
2019-04-01T18:32:44.112Z,101988.38
2019-04-01T18:35:13.577Z,101991.29
2019-04-01T18:37:43.003Z,101989.46
2019-04-01T18:40:12.540Z,101986.59
2019-04-01T18:42:41.972Z,101996.14
2019-04-01T18:45:11.426Z,101994.55
2019-04-01T18:47:40.849Z,101995.94
2019-04-01T18:50:10.300Z,101999.84
2019-04-01T18:52:39.735Z,102002.62
2019-04-01T18:55:09.172Z,101999.36
2019-04-01T18:57:38.591Z,101998.61
2019-04-01T19:00:09.676Z,102000.47
2019-04-01T19:02:39.099Z,101999.94
2019-04-01T19:05:10.034Z,102000.45
2019-04-01T19:07:39.529Z,102000.64
2019-04-01T19:10:09.013Z,102007.28
2019-04-01T19:12:38.396Z,102007.03
2019-04-01T19:15:09.857Z,102011.34
2019-04-01T19:17:39.257Z,102018.59
2019-04-01T19:20:08.848Z,102019.55
2019-04-01T19:22:38.312Z,102020.51
2019-04-01T19:25:07.743Z,102016.80
2019-04-01T19:27:37.187Z,102021.61
2019-04-01T19:30:07.348Z,102022.62
2019-04-01T19:32:38.140Z,102018.56
2019-04-01T19:35:09.476Z,102018.72
2019-04-01T19:37:39.032Z,102019.37
2019-04-01T19:40:08.451Z,102015.47
2019-04-01T19:42:40.371Z,102017.34
2019-04-01T19:45:11.963Z,102016.50
2019-04-01T19:47:41.774Z,102015.28
2019-04-01T19:50:11.189Z,102017.95
2019-04-01T19:52:40.664Z,102014.69
2019-04-01T19:55:10.355Z,102014.69
2019-04-01T19:57:39.806Z,102016.06
2019-04-01T20:00:09.223Z,102012.24
2019-04-01T20:02:38.664Z,102015.77
2019-04-01T20:05:08.110Z,102010.20
2019-04-01T20:07:37.924Z,102009.55
2019-04-01T20:10:07.347Z,102012.36
2019-04-01T20:12:36.811Z,102008.97
2019-04-01T20:15:11.935Z,102004.23
2019-04-01T20:17:41.807Z,102006.85
2019-04-01T20:20:14.251Z,102005.30
2019-04-01T20:22:42.367Z,102006.50
2019-04-01T20:25:14.678Z,102000.11
2019-04-01T20:27:44.340Z,102003.60
2019-04-01T20:30:15.104Z,102001.55
2019-04-01T20:32:44.551Z,102004.20
2019-04-01T20:35:23.289Z,101998.55
2019-04-01T20:37:45.235Z,101998.66
2019-04-01T20:40:14.607Z,101995.26
2019-04-01T20:42:44.058Z,101999.59
2019-04-01T20:45:13.823Z,101998.49
2019-04-01T20:47:43.291Z,101996.33
2019-04-01T20:50:13.884Z,101995.54
2019-04-01T20:52:43.326Z,101990.09
2019-04-01T20:55:13.496Z,101991.39
2019-04-01T20:57:43.268Z,101991.08
2019-04-01T21:00:12.683Z,101986.83
2019-04-01T21:02:42.123Z,101987.77
2019-04-01T21:05:11.537Z,101983.55
2019-04-01T21:07:40.974Z,101979.36
2019-04-01T21:10:10.392Z,101976.89
2019-04-01T21:12:39.840Z,101973.48
2019-04-01T21:15:09.284Z,101971.83
2019-04-01T21:17:38.735Z,101967.94
2019-04-01T21:20:08.222Z,101971.89
2019-04-01T21:22:37.664Z,101969.72
2019-04-01T21:25:07.219Z,101964.66
2019-04-01T21:27:36.670Z,101972.62
2019-04-01T21:30:10.840Z,101969.60
2019-04-01T21:32:40.283Z,101976.14
2019-04-01T21:35:09.776Z,101969.60
2019-04-01T21:37:39.230Z,101973.22
2019-04-01T21:40:08.647Z,101963.30
2019-04-01T21:42:38.096Z,101969.01
2019-04-01T21:45:08.384Z,101966.55
2019-04-01T21:47:37.853Z,101969.67
2019-04-01T21:50:07.269Z,101965.84
2019-04-01T21:52:36.711Z,101963.73
2019-04-01T21:55:08.294Z,101962.01
2019-04-01T21:57:37.996Z,101959.48
2019-04-01T22:00:09.849Z,101960.66
2019-04-01T22:02:39.298Z,101954.25
2019-04-01T22:05:10.165Z,101953.00
2019-04-01T22:07:40.036Z,101947.83
2019-04-01T22:10:11.079Z,101949.98
2019-04-01T22:12:40.516Z,101946.95
2019-04-01T22:15:09.973Z,101942.21
2019-04-01T22:17:39.417Z,101941.87
2019-04-01T22:20:10.217Z,101933.73
2019-04-01T22:22:39.743Z,101939.34
2019-04-01T22:25:09.187Z,101937.77
2019-04-01T22:27:38.596Z,101936.98
2019-04-01T22:30:08.105Z,101937.89
2019-04-01T22:32:37.527Z,101934.11
2019-04-01T22:35:08.588Z,101932.44
2019-04-01T22:37:38.156Z,101931.47
2019-04-01T22:40:07.603Z,101930.28
2019-04-01T22:42:37.016Z,101930.72
2019-04-01T22:45:07.336Z,101926.92
2019-04-01T22:47:36.751Z,101923.53
2019-04-01T22:50:06.870Z,101923.96
2019-04-01T22:52:36.297Z,101925.73
2019-04-01T22:55:06.198Z,101917.21
2019-04-01T22:57:35.626Z,101922.05
2019-04-01T23:00:05.734Z,101915.16
2019-04-01T23:02:35.151Z,101918.22
2019-04-01T23:05:05.989Z,101914.48
2019-04-01T23:07:35.405Z,101902.89
2019-04-01T23:10:06.554Z,101902.94
2019-04-01T23:12:35.980Z,101907.73
2019-04-01T23:15:06.859Z,101902.64
2019-04-01T23:17:36.281Z,101894.93
2019-04-01T23:20:05.990Z,101887.99
2019-04-01T23:22:35.411Z,101891.39
2019-04-01T23:25:05.591Z,101885.07
2019-04-01T23:27:35.006Z,101883.34
2019-04-01T23:30:07.668Z,101886.45
2019-04-01T23:32:37.082Z,101879.52
2019-04-01T23:35:07.405Z,101880.90
2019-04-01T23:37:38.071Z,101878.35
2019-04-01T23:40:07.841Z,101875.81
2019-04-01T23:42:38.067Z,101871.02
2019-04-01T23:45:08.345Z,101873.23
2019-04-01T23:47:37.762Z,101869.83
2019-04-01T23:50:09.153Z,101871.17
2019-04-01T23:52:38.961Z,101869.48
2019-04-01T23:55:08.405Z,101863.02
2019-04-01T23:57:37.815Z,101863.41
